Time;durP1;ratioP1;P1;durP2;ratioP2;P2;SDS_P1;SDS_P2;PMS_P1;PMS_P2;Temp;Humidity;BMP_temperature;BMP_pressure;BME280_temperature;BME280_humidity;BME280_pressure;Samples;Min_cycle;Max_cycle;Signal;HPM_P1;HPM_P2
2023/12/13 00:01:55;;;;;;;15.40;9.60;;;5.20;99.90;;;;;;4891698;29;20714;-74
2023/12/13 00:04:21;;;;;;;15.00;8.15;;;5.20;99.90;;;;;;4895603;29;20716;-74
2023/12/13 00:06:46;;;;;;;11.90;7.97;;;5.20;99.90;;;;;;4896941;29;20478;-76
2023/12/13 00:09:12;;;;;;;12.25;7.25;;;5.30;99.90;;;;;;4894989;29;20040;-74
2023/12/13 00:11:38;;;;;;;12.52;8.55;;;5.30;99.90;;;;;;4897812;29;21665;-74
2023/12/13 00:14:05;;;;;;;12.45;8.45;;;5.30;99.90;;;;;;4895906;29;20040;-74
2023/12/13 00:16:31;;;;;;;13.25;9.00;;;5.20;99.90;;;;;;4896483;29;20032;-74
2023/12/13 00:18:57;;;;;;;12.70;8.35;;;5.20;99.90;;;;;;4900806;29;20534;-74
2023/12/13 00:21:22;;;;;;;12.18;7.80;;;5.30;99.90;;;;;;4900713;29;20391;-74
2023/12/13 00:23:48;;;;;;;13.15;8.40;;;5.30;99.90;;;;;;4882056;29;20115;-74
2023/12/13 00:26:18;;;;;;;14.52;9.30;;;5.20;99.90;;;;;;4900620;29;20052;-75
2023/12/13 00:28:44;;;;;;;13.68;8.98;;;5.10;99.90;;;;;;4899599;29;20115;-76
2023/12/13 00:31:11;;;;;;;16.45;7.68;;;5.00;99.90;;;;;;4898775;29;20058;-75
2023/12/13 00:33:37;;;;;;;16.15;9.40;;;5.00;99.90;;;;;;4883577;29;20425;-74
2023/12/13 00:36:03;;;;;;;13.10;9.18;;;5.00;99.90;;;;;;4900517;29;20479;-74
2023/12/13 00:38:29;;;;;;;12.98;8.90;;;5.00;99.90;;;;;;4900234;29;20055;-74
2023/12/13 00:40:55;;;;;;;14.88;7.47;;;5.00;99.90;;;;;;4899526;29;20390;-74
2023/12/13 00:43:21;;;;;;;16.13;8.70;;;5.10;99.90;;;;;;4900561;29;20495;-74
2023/12/13 00:45:47;;;;;;;13.80;7.93;;;5.10;99.90;;;;;;4899703;29;20039;-74
2023/12/13 00:48:13;;;;;;;14.38;8.25;;;5.10;99.90;;;;;;4899108;29;20486;-74
2023/12/13 00:50:39;;;;;;;11.45;8.35;;;5.10;99.90;;;;;;4901101;29;20068;-75
2023/12/13 00:53:04;;;;;;;13.15;8.98;;;5.10;99.90;;;;;;4898364;29;20059;-74
2023/12/13 00:55:30;;;;;;;13.70;8.55;;;5.20;99.90;;;;;;4899332;29;20418;-74
2023/12/13 00:57:56;;;;;;;12.50;9.05;;;5.30;99.90;;;;;;4896628;29;20479;-76
2023/12/13 01:00:22;;;;;;;15.93;9.50;;;5.20;99.90;;;;;;4895716;29;20036;-74
2023/12/13 01:02:48;;;;;;;16.23;10.05;;;5.10;99.90;;;;;;4894775;29;20157;-75
2023/12/13 01:05:13;;;;;;;15.10;9.77;;;4.90;99.90;;;;;;4896295;29;20044;-75
2023/12/13 01:07:40;;;;;;;15.18;9.32;;;4.90;99.90;;;;;;4895635;29;20088;-74
2023/12/13 01:10:06;;;;;;;13.70;10.02;;;4.90;99.90;;;;;;4894496;29;20051;-75
2023/12/13 01:12:31;;;;;;;16.75;8.63;;;5.00;99.90;;;;;;4894473;29;20047;-74
2023/12/13 01:14:57;;;;;;;13.55;8.40;;;5.00;99.90;;;;;;4894998;29;20040;-74
2023/12/13 01:17:23;;;;;;;11.38;8.02;;;5.00;99.90;;;;;;4893280;29;20123;-74
2023/12/13 01:19:50;;;;;;;12.40;8.75;;;5.00;99.90;;;;;;4896328;29;20063;-74
2023/12/13 01:22:15;;;;;;;12.55;8.73;;;5.00;99.90;;;;;;4896168;29;20175;-75
2023/12/13 01:24:41;;;;;;;11.73;8.35;;;4.90;99.90;;;;;;4895066;29;20035;-76
2023/12/13 01:27:07;;;;;;;13.35;9.07;;;4.90;99.90;;;;;;4894833;29;20036;-74
2023/12/13 01:29:32;;;;;;;11.98;9.02;;;4.80;99.90;;;;;;4878973;29;20048;-75
2023/12/13 01:31:58;;;;;;;12.60;8.63;;;4.80;99.90;;;;;;4894031;29;20051;-75
2023/12/13 01:34:24;;;;;;;15.55;9.38;;;4.80;99.90;;;;;;4895074;29;20044;-74
2023/12/13 01:36:49;;;;;;;13.07;9.35;;;4.90;99.90;;;;;;4877501;29;20024;-75
2023/12/13 01:39:15;;;;;;;10.70;8.25;;;5.00;99.90;;;;;;4893663;29;20115;-75
2023/12/13 01:41:42;;;;;;;12.88;9.15;;;5.00;99.90;;;;;;4893979;29;20044;-75
2023/12/13 01:44:08;;;;;;;12.65;8.77;;;5.00;99.90;;;;;;4894953;29;20080;-75
2023/12/13 01:46:35;;;;;;;12.55;8.60;;;5.00;99.90;;;;;;4892427;29;20047;-75
2023/12/13 01:49:01;;;;;;;11.93;8.43;;;5.00;99.90;;;;;;4893811;29;20028;-74
2023/12/13 01:51:28;;;;;;;13.63;8.55;;;5.00;99.90;;;;;;4894493;29;20040;-75
2023/12/13 01:53:54;;;;;;;12.38;7.97;;;5.00;99.90;;;;;;4893581;29;20099;-74
2023/12/13 01:56:20;;;;;;;13.20;8.80;;;5.00;99.90;;;;;;4895008;29;20372;-75
2023/12/13 01:58:46;;;;;;;11.63;8.23;;;5.00;99.90;;;;;;4894506;29;20046;-75
2023/12/13 02:01:12;;;;;;;13.55;8.68;;;4.90;99.90;;;;;;4894669;29;20032;-74
2023/12/13 02:03:39;;;;;;;14.63;9.13;;;5.00;99.90;;;;;;4894810;29;21029;-74
2023/12/13 02:06:05;;;;;;;13.30;8.85;;;4.90;99.90;;;;;;4897841;29;20127;-76
2023/12/13 02:08:32;;;;;;;11.18;7.97;;;4.80;99.90;;;;;;4896380;29;20059;-75
2023/12/13 02:10:59;;;;;;;12.07;8.00;;;4.90;99.90;;;;;;4899992;29;20036;-75
2023/12/13 02:13:25;;;;;;;13.85;8.70;;;4.90;99.90;;;;;;4897205;29;20100;-75
2023/12/13 02:15:50;;;;;;;11.80;7.63;;;5.00;99.90;;;;;;4900442;29;20035;-74
2023/12/13 02:18:16;;;;;;;9.38;7.38;;;5.00;99.90;;;;;;4897303;29;20057;-74
2023/12/13 02:20:43;;;;;;;10.63;7.47;;;5.00;99.90;;;;;;4897902;29;20768;-74
2023/12/13 02:23:09;;;;;;;9.70;6.85;;;5.00;99.90;;;;;;4899061;29;20491;-75
2023/12/13 02:25:44;;;;;;;10.05;7.47;;;5.00;99.90;;;;;;4896887;29;21041;-74
2023/12/13 02:28:10;;;;;;;10.25;7.32;;;5.00;99.90;;;;;;4898422;29;20048;-75
2023/12/13 02:30:36;;;;;;;37.35;9.98;;;5.10;99.90;;;;;;4881790;29;20120;-74
2023/12/13 02:33:02;;;;;;;42.50;11.40;;;4.90;99.90;;;;;;4896770;29;20076;-74
2023/12/13 02:35:28;;;;;;;19.65;9.68;;;4.90;99.90;;;;;;4896822;29;20075;-74
2023/12/13 02:37:54;;;;;;;11.82;8.38;;;4.80;99.90;;;;;;4897357;29;20036;-74
2023/12/13 02:40:20;;;;;;;13.77;7.80;;;4.90;99.90;;;;;;4897781;29;20387;-74
2023/12/13 02:42:46;;;;;;;56.92;11.73;;;5.00;99.90;;;;;;4896655;29;20175;-74
2023/12/13 02:45:13;;;;;;;102.25;14.77;;;4.90;99.90;;;;;;4899124;29;20052;-74
2023/12/13 02:47:42;;;;;;;19.92;9.20;;;4.90;99.90;;;;;;4897963;29;20040;-74
2023/12/13 02:50:09;;;;;;;21.20;8.93;;;4.90;99.90;;;;;;4881248;29;20037;-74
2023/12/13 02:52:35;;;;;;;11.30;7.80;;;4.80;99.90;;;;;;4897500;29;20067;-75
2023/12/13 02:55:02;;;;;;;10.23;7.35;;;4.90;99.90;;;;;;4896900;29;20767;-74
2023/12/13 02:57:28;;;;;;;15.15;9.02;;;4.90;99.90;;;;;;4899063;29;20039;-74
2023/12/13 02:59:53;;;;;;;26.48;10.15;;;5.00;99.90;;;;;;4897465;29;20088;-74
2023/12/13 03:02:19;;;;;;;11.13;8.50;;;4.80;99.90;;;;;;4879665;29;20044;-74
2023/12/13 03:04:44;;;;;;;14.55;8.30;;;4.90;99.90;;;;;;4899278;29;20048;-74
2023/12/13 03:07:10;;;;;;;12.02;8.80;;;4.90;99.90;;;;;;4895808;29;20048;-74
2023/12/13 03:09:36;;;;;;;12.25;8.48;;;4.90;99.90;;;;;;4898535;29;20050;-74
2023/12/13 03:12:01;;;;;;;10.95;7.80;;;4.90;99.90;;;;;;4897586;29;20579;-74
2023/12/13 03:14:27;;;;;;;11.40;7.53;;;4.90;99.90;;;;;;4897303;29;20060;-75
2023/12/13 03:16:53;;;;;;;12.13;8.77;;;4.90;99.90;;;;;;4898873;29;20040;-74
2023/12/13 03:19:18;;;;;;;12.40;7.95;;;5.00;99.90;;;;;;4897959;29;20191;-74
2023/12/13 03:21:44;;;;;;;10.55;8.77;;;5.00;99.90;;;;;;4898260;29;20390;-75
2023/12/13 03:24:10;;;;;;;13.75;9.60;;;5.00;99.90;;;;;;4880399;29;20044;-74
2023/12/13 03:26:35;;;;;;;12.13;9.55;;;5.00;99.90;;;;;;4895816;29;20143;-74
2023/12/13 03:29:01;;;;;;;11.50;8.45;;;5.00;99.90;;;;;;4897548;29;20039;-75
2023/12/13 03:31:27;;;;;;;15.43;9.80;;;5.10;99.90;;;;;;4898726;29;20044;-74
2023/12/13 03:33:54;;;;;;;17.45;9.80;;;5.10;99.90;;;;;;4897003;29;20044;-74
2023/12/13 03:36:20;;;;;;;11.93;9.18;;;5.20;99.90;;;;;;4897622;29;20494;-74
2023/12/13 03:38:46;;;;;;;12.30;8.52;;;5.30;99.90;;;;;;4901277;29;20040;-75
2023/12/13 03:41:12;;;;;;;13.18;8.35;;;5.20;99.90;;;;;;4899757;29;20047;-73
2023/12/13 03:43:39;;;;;;;13.13;8.60;;;5.30;99.90;;;;;;4900716;29;20044;-74
2023/12/13 03:46:05;;;;;;;11.32;8.57;;;5.30;99.90;;;;;;4901439;29;20044;-74
2023/12/13 03:48:31;;;;;;;15.18;8.55;;;5.30;99.90;;;;;;4900177;29;20044;-74
2023/12/13 03:50:57;;;;;;;13.20;8.20;;;5.30;99.90;;;;;;4900830;29;20044;-74
2023/12/13 03:53:22;;;;;;;14.07;9.13;;;5.30;99.90;;;;;;4902423;29;20043;-74
2023/12/13 03:55:48;;;;;;;12.32;7.30;;;5.30;99.90;;;;;;4901012;29;20095;-76
2023/12/13 03:58:14;;;;;;;10.65;8.02;;;5.20;99.90;;;;;;4898417;29;20044;-74
2023/12/13 04:00:40;;;;;;;12.80;7.97;;;5.30;99.90;;;;;;4900344;29;20559;-74
2023/12/13 04:03:05;;;;;;;13.15;8.63;;;5.30;99.90;;;;;;4897289;29;20092;-74
2023/12/13 04:05:31;;;;;;;11.98;8.68;;;5.20;99.90;;;;;;4895272;29;20082;-75
2023/12/13 04:07:57;;;;;;;12.30;8.50;;;5.20;99.90;;;;;;4880376;29;20131;-74
2023/12/13 04:10:23;;;;;;;13.20;9.20;;;5.20;99.90;;;;;;4895965;29;20048;-74
2023/12/13 04:12:49;;;;;;;13.70;8.65;;;5.20;99.90;;;;;;4895698;29;20131;-75
2023/12/13 04:15:14;;;;;;;14.82;9.07;;;5.20;99.90;;;;;;4879011;29;20040;-75
2023/12/13 04:17:40;;;;;;;12.88;8.98;;;5.20;99.90;;;;;;4892760;29;20048;-74
2023/12/13 04:20:06;;;;;;;10.38;8.52;;;5.20;99.90;;;;;;4876984;29;20522;-75
2023/12/13 04:22:32;;;;;;;14.40;8.18;;;5.30;99.90;;;;;;4892703;29;20495;-75
2023/12/13 04:24:58;;;;;;;10.57;7.35;;;5.30;99.90;;;;;;4893353;29;20039;-75
2023/12/13 04:27:23;;;;;;;11.90;7.53;;;5.30;99.90;;;;;;4897559;29;20040;-74
2023/12/13 04:29:49;;;;;;;12.18;8.07;;;5.30;99.90;;;;;;4897172;29;20391;-74
2023/12/13 04:32:15;;;;;;;13.30;8.38;;;5.30;99.90;;;;;;4895414;29;21252;-74
2023/12/13 04:34:40;;;;;;;11.27;8.00;;;5.30;99.90;;;;;;4897540;29;20039;-76
2023/12/13 04:37:06;;;;;;;10.75;8.13;;;5.30;99.90;;;;;;4896531;29;20124;-74
2023/12/13 04:39:32;;;;;;;12.65;9.10;;;5.30;99.90;;;;;;4895358;29;20490;-75
2023/12/13 04:41:58;;;;;;;11.43;8.02;;;5.30;99.90;;;;;;4897765;29;20040;-74
2023/12/13 04:44:27;;;;;;;13.93;8.85;;;5.30;99.90;;;;;;4896544;29;20071;-74
2023/12/13 04:46:57;;;;;;;11.82;8.40;;;5.40;99.90;;;;;;4878297;29;20391;-74
2023/12/13 04:49:23;;;;;;;12.43;8.45;;;5.40;99.90;;;;;;4893732;29;20376;-74
2023/12/13 04:51:49;;;;;;;10.63;7.57;;;5.40;99.90;;;;;;4895674;29;20043;-75
2023/12/13 04:54:15;;;;;;;11.35;7.10;;;5.50;99.90;;;;;;4896115;29;20048;-75
2023/12/13 04:56:41;;;;;;;12.13;8.05;;;5.50;99.90;;;;;;4894920;29;20043;-74
2023/12/13 04:59:06;;;;;;;9.68;7.07;;;5.40;99.90;;;;;;4894199;29;20032;-74
2023/12/13 05:01:32;;;;;;;8.75;7.20;;;5.40;99.90;;;;;;4893216;29;20040;-75
2023/12/13 05:03:58;;;;;;;12.82;7.80;;;5.50;99.90;;;;;;4874983;29;20067;-74
2023/12/13 05:06:24;;;;;;;10.95;7.18;;;5.50;99.90;;;;;;4893698;29;20518;-75
2023/12/13 05:08:49;;;;;;;8.55;6.32;;;5.50;99.90;;;;;;4892220;29;20064;-74
2023/12/13 05:11:15;;;;;;;10.07;7.25;;;5.50;99.90;;;;;;4891245;29;20666;-74
2023/12/13 05:13:41;;;;;;;9.80;6.63;;;5.60;99.90;;;;;;4893318;29;20052;-74
2023/12/13 05:16:08;;;;;;;9.88;6.70;;;5.60;99.90;;;;;;4892414;29;20124;-75
2023/12/13 05:18:34;;;;;;;9.77;7.05;;;5.70;99.90;;;;;;4892290;29;20056;-74
2023/12/13 05:21:01;;;;;;;12.07;8.18;;;5.70;99.90;;;;;;4892805;29;20081;-74
2023/12/13 05:23:27;;;;;;;15.35;7.45;;;5.50;99.90;;;;;;4892416;29;20127;-75
2023/12/13 05:25:53;;;;;;;12.18;8.45;;;5.40;99.90;;;;;;4893545;29;20044;-75
2023/12/13 05:28:19;;;;;;;11.05;8.15;;;5.30;99.90;;;;;;4892734;29;20141;-76
2023/12/13 05:30:45;;;;;;;11.00;8.00;;;5.20;99.90;;;;;;4891019;29;20179;-73
2023/12/13 05:33:11;;;;;;;9.60;7.22;;;5.20;99.90;;;;;;4893901;29;20518;-74
2023/12/13 05:35:36;;;;;;;10.27;7.20;;;5.30;99.90;;;;;;4892422;29;20039;-75
2023/12/13 05:38:02;;;;;;;10.80;8.05;;;5.30;99.90;;;;;;4891981;29;20051;-73
2023/12/13 05:40:28;;;;;;;10.80;7.07;;;5.20;99.90;;;;;;4891508;29;20644;-75
2023/12/13 05:42:54;;;;;;;9.48;7.25;;;5.20;99.90;;;;;;4892409;29;20128;-74
2023/12/13 05:45:20;;;;;;;11.82;7.22;;;5.40;99.90;;;;;;4891059;29;20126;-74
2023/12/13 05:47:46;;;;;;;9.00;6.55;;;5.50;99.90;;;;;;4892689;29;20154;-74
2023/12/13 05:50:11;;;;;;;10.10;7.38;;;5.60;99.90;;;;;;4892149;29;20390;-74
2023/12/13 05:52:39;;;;;;;9.73;7.22;;;5.70;99.90;;;;;;4891039;29;20166;-74
2023/12/13 05:55:06;;;;;;;9.55;6.40;;;5.60;99.90;;;;;;4892028;29;20036;-74
2023/12/13 05:57:31;;;;;;;9.65;6.47;;;5.60;99.90;;;;;;4892128;29;20070;-73
2023/12/13 05:59:57;;;;;;;9.73;6.80;;;5.60;99.90;;;;;;4890257;29;20119;-74
2023/12/13 06:02:24;;;;;;;9.57;6.88;;;5.70;99.90;;;;;;4889807;29;20039;-75
2023/12/13 06:04:51;;;;;;;10.02;6.85;;;5.80;99.90;;;;;;4892001;29;20042;-74
2023/12/13 06:07:17;;;;;;;8.88;6.85;;;5.70;99.90;;;;;;4892715;29;20108;-74
2023/12/13 06:09:43;;;;;;;11.35;7.35;;;5.70;99.90;;;;;;4890452;29;20040;-74
2023/12/13 06:12:09;;;;;;;8.98;6.40;;;5.60;99.90;;;;;;4886704;29;20832;-74
2023/12/13 06:14:35;;;;;;;12.63;6.90;;;5.60;99.90;;;;;;4892406;29;20158;-73
2023/12/13 06:17:00;;;;;;;9.90;6.60;;;5.70;99.90;;;;;;4889261;29;20040;-73
2023/12/13 06:19:29;;;;;;;11.82;6.78;;;5.70;99.90;;;;;;4894777;29;20044;-72
2023/12/13 06:21:56;;;;;;;9.68;7.35;;;5.80;99.90;;;;;;4890486;29;20483;-74
2023/12/13 06:24:22;;;;;;;11.73;6.63;;;5.80;99.90;;;;;;4891452;29;20627;-75
2023/12/13 06:26:48;;;;;;;8.30;6.03;;;5.80;99.90;;;;;;4892670;29;20171;-74
2023/12/13 06:29:14;;;;;;;11.57;6.15;;;5.80;99.90;;;;;;4887051;29;20653;-75
2023/12/13 06:31:39;;;;;;;10.40;7.60;;;5.90;99.90;;;;;;4887885;29;20032;-74
2023/12/13 06:34:05;;;;;;;9.80;5.88;;;5.80;99.90;;;;;;4890247;29;20044;-74
2023/12/13 06:36:31;;;;;;;11.80;6.72;;;5.70;99.90;;;;;;4890284;29;20087;-74
2023/12/13 06:38:56;;;;;;;9.02;6.68;;;5.70;99.90;;;;;;4892884;29;20040;-75
2023/12/13 06:41:22;;;;;;;8.65;6.43;;;5.70;99.90;;;;;;4896612;29;20083;-75
2023/12/13 06:43:48;;;;;;;9.07;6.10;;;5.70;99.90;;;;;;4892950;29;20512;-74
2023/12/13 06:46:14;;;;;;;11.88;6.18;;;5.70;99.90;;;;;;4894246;29;20059;-74
2023/12/13 06:48:39;;;;;;;9.43;6.60;;;5.70;99.90;;;;;;4891864;29;20441;-75
2023/12/13 06:51:07;;;;;;;9.20;6.05;;;5.70;99.90;;;;;;4890933;29;20054;-73
2023/12/13 06:53:36;;;;;;;8.77;7.00;;;5.70;99.90;;;;;;4890569;29;21028;-73
2023/12/13 06:56:03;;;;;;;10.80;6.20;;;5.70;99.90;;;;;;4892669;29;20565;-74
2023/12/13 06:58:28;;;;;;;9.00;5.88;;;5.80;99.90;;;;;;4891608;29;20028;-73
2023/12/13 07:00:54;;;;;;;9.27;5.35;;;5.70;99.90;;;;;;4889706;29;20048;-74
2023/12/13 07:03:20;;;;;;;8.85;6.40;;;5.80;99.90;;;;;;4891910;29;20048;-74
2023/12/13 07:05:46;;;;;;;10.10;5.95;;;5.80;99.90;;;;;;4889799;29;20092;-74
2023/12/13 07:08:12;;;;;;;8.80;5.93;;;5.80;99.90;;;;;;4887614;29;20424;-74
2023/12/13 07:10:38;;;;;;;7.70;5.32;;;5.80;99.90;;;;;;4891284;29;20036;-74
2023/12/13 07:13:04;;;;;;;8.38;5.38;;;5.80;99.90;;;;;;4893898;29;20129;-73
2023/12/13 07:15:30;;;;;;;7.78;5.68;;;5.90;99.90;;;;;;4894782;29;20451;-74
2023/12/13 07:17:56;;;;;;;9.77;5.63;;;5.80;99.90;;;;;;4893908;29;20043;-74
2023/12/13 07:20:22;;;;;;;7.72;4.88;;;5.80;99.90;;;;;;4895301;29;20040;-73
2023/12/13 07:22:50;;;;;;;8.57;5.47;;;5.70;99.90;;;;;;4893039;29;20590;-74
2023/12/13 07:25:16;;;;;;;10.25;5.65;;;5.70;99.90;;;;;;4892586;29;20036;-73
2023/12/13 07:27:42;;;;;;;8.20;5.50;;;5.70;99.90;;;;;;4896410;29;20055;-74
2023/12/13 07:30:08;;;;;;;8.77;5.25;;;5.70;99.90;;;;;;4893014;29;20115;-74
2023/12/13 07:32:33;;;;;;;7.38;4.93;;;5.70;99.90;;;;;;4892883;29;20048;-73
2023/12/13 07:35:00;;;;;;;8.07;5.88;;;5.80;99.90;;;;;;4895293;29;20099;-74
2023/12/13 07:37:26;;;;;;;7.85;5.47;;;5.80;99.90;;;;;;4894640;29;20059;-74
2023/12/13 07:39:51;;;;;;;8.05;5.20;;;5.80;99.90;;;;;;4892809;29;20032;-74
2023/12/13 07:42:17;;;;;;;9.20;5.38;;;5.70;99.90;;;;;;4892379;29;20047;-74
2023/12/13 07:44:45;;;;;;;8.23;6.20;;;5.60;99.90;;;;;;4894399;29;20039;-74
2023/12/13 07:47:12;;;;;;;7.80;4.65;;;5.60;99.90;;;;;;4889971;29;20534;-75
2023/12/13 07:49:38;;;;;;;9.73;5.72;;;5.70;99.90;;;;;;4888075;29;20055;-73
2023/12/13 07:52:06;;;;;;;9.30;6.00;;;5.80;99.90;;;;;;4894708;29;20139;-74
2023/12/13 07:54:32;;;;;;;8.48;5.15;;;5.80;99.90;;;;;;4892546;29;20136;-74
2023/12/13 07:56:58;;;;;;;7.20;5.15;;;5.80;99.90;;;;;;4875294;29;20048;-75
2023/12/13 07:59:24;;;;;;;10.73;6.32;;;5.80;99.90;;;;;;4876304;29;20040;-74
2023/12/13 08:01:50;;;;;;;8.93;6.15;;;5.60;99.90;;;;;;4888734;29;20097;-75
2023/12/13 08:04:16;;;;;;;8.43;5.90;;;5.60;99.90;;;;;;4894467;29;20602;-74
2023/12/13 08:06:42;;;;;;;9.90;5.90;;;5.70;99.90;;;;;;4892136;29;20032;-75
2023/12/13 08:09:10;;;;;;;7.55;5.10;;;5.70;99.90;;;;;;4893382;29;20032;-74
2023/12/13 08:11:37;;;;;;;10.88;5.65;;;5.70;99.90;;;;;;4892641;29;20041;-75
2023/12/13 08:14:03;;;;;;;10.60;6.25;;;5.70;99.90;;;;;;4890798;29;20043;-74
2023/12/13 08:16:29;;;;;;;7.93;5.78;;;5.50;99.90;;;;;;4893209;29;20036;-75
2023/12/13 08:18:55;;;;;;;9.93;6.65;;;5.60;99.90;;;;;;4891371;29;20056;-75
2023/12/13 08:21:23;;;;;;;9.40;5.65;;;5.60;99.90;;;;;;4891922;29;20471;-74
2023/12/13 08:23:49;;;;;;;8.82;5.53;;;5.60;99.90;;;;;;4892087;29;20364;-75
2023/12/13 08:26:15;;;;;;;10.93;6.97;;;5.60;99.90;;;;;;4893644;29;20051;-74
2023/12/13 08:28:41;;;;;;;10.18;6.45;;;5.50;99.90;;;;;;4893303;29;20036;-73
2023/12/13 08:31:08;;;;;;;11.40;7.97;;;5.60;99.90;;;;;;4890034;29;20036;-74
2023/12/13 08:33:34;;;;;;;12.25;8.65;;;5.60;99.90;;;;;;4891460;29;20044;-74
2023/12/13 08:36:00;;;;;;;12.40;7.53;;;5.60;99.90;;;;;;4892957;29;20099;-74
2023/12/13 08:38:26;;;;;;;9.32;6.35;;;5.60;99.90;;;;;;4892257;29;20047;-74
2023/12/13 08:40:52;;;;;;;11.45;7.57;;;5.70;99.90;;;;;;4893368;29;20036;-74
2023/12/13 08:43:18;;;;;;;14.30;8.40;;;5.70;99.90;;;;;;4891550;29;20044;-74
2023/12/13 08:45:43;;;;;;;13.40;7.93;;;5.60;99.90;;;;;;4890775;29;20730;-74
2023/12/13 08:48:09;;;;;;;11.30;6.25;;;5.60;99.90;;;;;;4891828;29;20111;-75
2023/12/13 08:50:35;;;;;;;8.23;5.80;;;5.60;99.90;;;;;;4891852;29;20047;-75
2023/12/13 08:53:01;;;;;;;10.73;7.03;;;5.60;99.90;;;;;;4892698;29;20048;-74
2023/12/13 08:55:27;;;;;;;9.73;6.20;;;5.60;99.90;;;;;;4891825;29;20063;-74
2023/12/13 08:57:53;;;;;;;10.40;7.07;;;5.70;99.90;;;;;;4891514;29;20736;-75
2023/12/13 09:00:19;;;;;;;8.18;5.85;;;5.70;99.90;;;;;;4892200;29;20464;-74
2023/12/13 09:02:45;;;;;;;7.28;5.68;;;5.70;99.90;;;;;;4890574;29;20486;-72
2023/12/13 09:05:10;;;;;;;9.73;5.40;;;5.70;99.90;;;;;;4890894;29;20099;-72
2023/12/13 09:07:36;;;;;;;7.97;5.65;;;5.80;99.90;;;;;;4892270;29;20513;-74
2023/12/13 09:10:03;;;;;;;8.80;5.03;;;5.80;99.90;;;;;;4890963;29;20096;-75
2023/12/13 09:12:28;;;;;;;7.63;5.13;;;5.90;99.90;;;;;;4890379;29;20080;-74
2023/12/13 09:14:54;;;;;;;11.07;6.90;;;6.00;99.90;;;;;;4891724;29;20123;-74
2023/12/13 09:17:20;;;;;;;11.30;7.45;;;5.90;99.90;;;;;;4890697;29;20123;-74
2023/12/13 09:19:45;;;;;;;8.98;6.70;;;5.80;99.90;;;;;;4889796;29;20896;-74
2023/12/13 09:22:11;;;;;;;10.35;7.15;;;5.70;99.90;;;;;;4875350;29;20044;-74
2023/12/13 09:24:37;;;;;;;10.68;6.75;;;5.70;99.90;;;;;;4890941;29;20067;-74
2023/12/13 09:27:03;;;;;;;8.45;5.82;;;5.90;99.90;;;;;;4890452;29;20035;-74
2023/12/13 09:29:28;;;;;;;10.27;7.28;;;5.90;99.90;;;;;;4892138;29;20042;-74
2023/12/13 09:31:54;;;;;;;10.85;7.68;;;5.90;99.90;;;;;;4889698;29;20075;-74
2023/12/13 09:34:21;;;;;;;9.95;6.93;;;5.80;99.90;;;;;;4890821;29;20047;-73
2023/12/13 09:36:47;;;;;;;10.50;7.45;;;5.70;99.90;;;;;;4891937;29;20135;-74
2023/12/13 09:39:15;;;;;;;12.20;8.13;;;5.70;99.90;;;;;;4891297;29;20533;-74
2023/12/13 09:42:03;;;;;;;13.57;9.15;;;5.70;99.90;;;;;;4890949;29;20039;-73
2023/12/13 09:44:30;;;;;;;11.73;7.38;;;5.80;99.90;;;;;;4890417;29;20036;-73
2023/12/13 09:47:00;;;;;;;10.75;6.97;;;5.90;99.90;;;;;;4891314;29;20036;-73
2023/12/13 09:49:28;;;;;;;11.35;7.20;;;5.90;99.90;;;;;;4890436;29;20044;-73
2023/12/13 09:51:55;;;;;;;14.50;8.57;;;6.00;99.90;;;;;;4892673;29;20561;-74
2023/12/13 09:54:21;;;;;;;11.85;7.82;;;6.10;99.90;;;;;;4895337;29;20067;-74
2023/12/13 09:56:46;;;;;;;11.10;7.70;;;6.10;99.90;;;;;;4893706;29;20114;-73
2023/12/13 09:59:12;;;;;;;11.85;8.35;;;6.00;99.90;;;;;;4893824;29;20119;-73
2023/12/13 10:01:38;;;;;;;10.70;7.15;;;6.00;99.90;;;;;;4892492;29;20139;-74
2023/12/13 10:04:03;;;;;;;14.63;8.43;;;6.00;99.90;;;;;;4890710;29;20036;-73
2023/12/13 10:06:29;;;;;;;11.95;8.25;;;5.90;99.90;;;;;;4890185;29;20549;-74
2023/12/13 10:09:01;;;;;;;12.63;7.38;;;5.90;99.90;;;;;;4892236;29;20095;-73
2023/12/13 10:11:27;;;;;;;12.18;6.85;;;5.90;99.90;;;;;;4891604;29;20035;-73
2023/12/13 10:13:52;;;;;;;14.65;9.00;;;5.90;99.90;;;;;;4893481;29;20055;-73
2023/12/13 10:16:19;;;;;;;14.88;7.72;;;6.00;99.90;;;;;;4894186;29;20035;-73
2023/12/13 10:18:47;;;;;;;11.75;7.47;;;6.10;99.90;;;;;;4893443;29;20151;-73
2023/12/13 10:21:13;;;;;;;13.13;8.65;;;6.10;99.90;;;;;;4893355;29;20040;-73
2023/12/13 10:23:43;;;;;;;11.45;7.18;;;6.10;99.90;;;;;;4894715;29;20138;-73
2023/12/13 10:26:09;;;;;;;11.32;8.57;;;6.20;99.90;;;;;;4892284;29;20039;-73
2023/12/13 10:28:36;;;;;;;12.23;8.05;;;6.20;99.90;;;;;;4892353;29;20059;-73
2023/12/13 10:31:02;;;;;;;15.10;10.13;;;6.20;99.90;;;;;;4893487;29;20094;-73
2023/12/13 10:33:29;;;;;;;9.90;7.90;;;6.10;99.90;;;;;;4894101;29;20044;-73
2023/12/13 10:35:57;;;;;;;13.90;8.52;;;6.20;99.90;;;;;;4892251;29;20040;-73
2023/12/13 10:38:25;;;;;;;13.00;7.75;;;6.30;99.90;;;;;;4893139;29;20393;-74
2023/12/13 10:40:52;;;;;;;11.68;8.70;;;6.30;99.90;;;;;;4894473;29;20603;-73
2023/12/13 10:43:19;;;;;;;23.55;16.02;;;6.20;99.90;;;;;;4893089;29;20044;-74
2023/12/13 10:45:58;;;;;;;20.38;15.75;;;6.30;99.90;;;;;;4891998;29;20039;-73
2023/12/13 10:48:31;;;;;;;17.02;13.00;;;6.40;99.90;;;;;;4892688;29;20044;-74
2023/12/13 10:50:57;;;;;;;15.23;10.88;;;6.30;99.90;;;;;;4894058;29;20040;-73
2023/12/13 10:53:24;;;;;;;16.65;10.27;;;6.30;99.90;;;;;;4890912;29;20135;-73
2023/12/13 10:55:51;;;;;;;11.40;8.50;;;6.30;99.90;;;;;;4889713;29;20047;-74
2023/12/13 10:58:19;;;;;;;14.00;8.55;;;6.30;99.90;;;;;;4873750;29;20588;-73
2023/12/13 11:00:46;;;;;;;10.40;7.55;;;6.30;99.90;;;;;;4889080;29;20044;-73
2023/12/13 11:03:18;;;;;;;12.70;8.43;;;6.30;99.90;;;;;;4891413;29;20490;-73
2023/12/13 11:05:44;;;;;;;10.23;8.30;;;6.20;99.90;;;;;;4895869;29;20032;-74
2023/12/13 11:08:17;;;;;;;12.40;9.70;;;6.30;99.90;;;;;;4898330;29;20473;-73
2023/12/13 11:11:02;;;;;;;12.90;9.27;;;6.30;99.90;;;;;;4898586;29;20036;-75
2023/12/13 11:13:29;;;;;;;12.32;8.35;;;6.40;99.90;;;;;;4897619;29;20051;-74
2023/12/13 11:15:54;;;;;;;13.10;7.30;;;6.30;99.90;;;;;;4898635;29;20028;-74
2023/12/13 11:18:20;;;;;;;12.90;7.97;;;6.30;99.90;;;;;;4897821;29;20542;-74
2023/12/13 11:20:54;;;;;;;11.32;7.28;;;6.30;99.90;;;;;;4897197;29;20028;-75
2023/12/13 11:23:26;;;;;;;10.27;7.07;;;6.30;99.90;;;;;;4897309;29;21238;-73
2023/12/13 11:25:54;;;;;;;11.02;7.20;;;6.30;99.90;;;;;;4898219;29;20032;-73
2023/12/13 11:28:21;;;;;;;12.80;7.60;;;6.30;99.90;;;;;;4895646;29;20051;-74
2023/12/13 11:30:47;;;;;;;12.25;7.35;;;6.30;99.90;;;;;;4896754;29;20040;-74
2023/12/13 11:33:14;;;;;;;11.55;7.25;;;6.30;99.90;;;;;;4894318;29;20103;-73
2023/12/13 11:35:40;;;;;;;15.75;8.27;;;6.40;99.90;;;;;;4895592;29;20040;-74
2023/12/13 11:38:07;;;;;;;10.43;7.57;;;6.40;99.90;;;;;;4896878;29;20406;-73
2023/12/13 11:40:33;;;;;;;12.00;8.52;;;6.50;99.90;;;;;;4895939;29;20638;-74
2023/12/13 11:42:59;;;;;;;18.50;8.63;;;6.40;99.90;;;;;;4896029;29;21408;-73
2023/12/13 11:45:25;;;;;;;16.35;12.93;;;6.50;99.90;;;;;;4896493;29;20059;-73
2023/12/13 11:47:51;;;;;;;14.35;9.57;;;6.60;99.90;;;;;;4898190;29;20380;-73
2023/12/13 11:50:19;;;;;;;13.85;10.18;;;6.60;99.90;;;;;;4896656;29;20047;-73
2023/12/13 11:52:45;;;;;;;14.30;9.32;;;6.60;99.90;;;;;;4896557;29;20044;-73
2023/12/13 11:55:11;;;;;;;10.75;8.75;;;6.60;99.90;;;;;;4896835;29;20032;-73
2023/12/13 11:57:38;;;;;;;17.17;12.88;;;6.50;99.90;;;;;;4898754;29;20040;-74
2023/12/13 12:00:05;;;;;;;17.52;12.73;;;6.50;99.90;;;;;;4900902;29;20032;-74
2023/12/13 12:02:31;;;;;;;15.93;10.30;;;6.50;99.90;;;;;;4900545;29;20498;-74
2023/12/13 12:05:01;;;;;;;14.65;9.07;;;6.60;99.90;;;;;;4899898;29;20032;-74
2023/12/13 12:07:27;;;;;;;14.40;8.05;;;6.50;99.90;;;;;;4895419;29;20637;-73
2023/12/13 12:09:55;;;;;;;12.25;8.25;;;6.60;99.90;;;;;;4896279;29;20036;-73
2023/12/13 12:12:23;;;;;;;9.88;7.22;;;6.60;99.90;;;;;;4896340;29;20075;-73
2023/12/13 12:14:49;;;;;;;12.85;7.97;;;6.50;99.90;;;;;;4895650;29;20048;-74
2023/12/13 12:17:19;;;;;;;13.00;8.32;;;6.50;99.90;;;;;;4894953;29;20039;-74
2023/12/13 12:19:45;;;;;;;18.35;9.13;;;6.60;99.90;;;;;;4896725;29;20064;-73
2023/12/13 12:22:12;;;;;;;12.57;8.45;;;6.70;99.90;;;;;;4896033;29;20761;-74
2023/12/13 12:24:38;;;;;;;14.63;9.25;;;6.60;99.90;;;;;;4895519;29;20032;-73
2023/12/13 12:27:10;;;;;;;11.90;8.55;;;6.60;99.90;;;;;;4895704;29;20048;-73
2023/12/13 12:29:36;;;;;;;13.73;8.90;;;6.60;99.90;;;;;;4894459;29;20043;-74
2023/12/13 12:32:08;;;;;;;10.77;7.90;;;6.60;99.90;;;;;;4894179;29;20051;-74
2023/12/13 12:34:36;;;;;;;12.80;9.02;;;6.50;99.90;;;;;;4894418;29;20382;-74
2023/12/13 12:37:02;;;;;;;12.80;9.20;;;6.50;99.90;;;;;;4896009;29;20116;-74
2023/12/13 12:39:30;;;;;;;15.30;8.20;;;6.50;99.90;;;;;;4895205;29;20054;-74
2023/12/13 12:41:56;;;;;;;12.10;7.95;;;6.40;99.90;;;;;;4890819;29;20670;-76
2023/12/13 12:44:23;;;;;;;13.95;8.35;;;6.40;99.90;;;;;;4891809;29;20040;-75